SJA weather

San Juan Aeroclub Airport
San Juan, San Juan Province, Argentina

Public forecast

Using degrees Celsius for public forecast. Weather courtesy of forecast.io.

METAR (pilot weather report)

Report is more than 6 hours old.

Closest report is Domingo Faustino Sarmiento Airport, 6.9 nm (12.7 km) ENE. Retrieved 2019/06/24 22:30 UTC (22 days ago):

SANU 242230Z 27018KT 2000 SA 22/M11 Q1003

TAF (pilot weather forecast)

Forecast is more than 12 hours old.

Closest forecast is Domingo Faustino Sarmiento Airport, 6.9 nm (12.7 km) ENE. Retrieved 2019/06/21 06:39 UTC (26 days ago):

TAF TAF SANU 210500Z 2106/2206 20005KT CAVOK TX20/2120Z TNM02/2111Z